Hepburnville, Pennsylvania
Current Conditions -  °F | °C
As of 12:54 PM on Thursday 30 Oct 2014 (Local Time) from KIPT Reporting Station
Overcast Overcast  
Wind Chill: 52°   Ceiling: 4800
Heat Index: 52°   Visibility: 10mi
Dew Point: 34°   Wind: 8mph
Humidity: 50%   Direction: 360°N
Pressure: 30.04"   Gusts: NA
Location:  41.3181°N, 77.075°W
Report Text: KIPT 301654Z 36007KT 10SM OVC048 11/01 A3004 RMK AO2 SLP173 T01110011
Loading
Personal Weather Stations






























Interactive Weather Map
Tropical Storm Tracking
New forecast layout! Learn more

10-Day Weather Forecast

Advertisements
Track Severe Weather on mobile